createdAt,value
2023-03-25T00:00:17.980Z,1.70
2023-03-25T00:02:50.240Z,1.80
2023-03-25T00:05:20.546Z,1.97
2023-03-25T00:07:51.985Z,1.50
2023-03-25T00:10:19.736Z,1.67
2023-03-25T00:12:46.870Z,2.00
2023-03-25T00:15:16.190Z,1.73
2023-03-25T00:17:44.163Z,3.20
2023-03-25T00:20:12.247Z,1.70
2023-03-25T00:22:44.493Z,2.10
2023-03-25T00:25:19.356Z,1.53
2023-03-25T00:27:48.543Z,1.40
2023-03-25T00:30:16.661Z,1.60
2023-03-25T00:32:50.461Z,1.67
2023-03-25T00:35:21.255Z,2.10
2023-03-25T00:37:52.298Z,2.20
2023-03-25T00:40:19.309Z,2.13
2023-03-25T00:42:50.417Z,1.90
2023-03-25T00:45:17.744Z,2.23
2023-03-25T00:47:44.893Z,2.10
2023-03-25T00:50:12.278Z,2.40
2023-03-25T00:52:39.258Z,1.80
2023-03-25T00:55:07.543Z,2.30
2023-03-25T00:57:34.523Z,1.70
2023-03-25T01:00:01.675Z,1.83
2023-03-25T01:02:28.649Z,2.07
2023-03-25T01:04:57.598Z,1.90
2023-03-25T01:07:24.647Z,1.90
2023-03-25T01:09:51.748Z,1.77
2023-03-25T01:12:20.019Z,2.03
2023-03-25T01:14:47.114Z,1.90
2023-03-25T01:17:15.336Z,1.50
2023-03-25T01:19:42.246Z,1.80
2023-03-25T01:22:09.161Z,1.70
2023-03-25T01:24:36.316Z,2.00
2023-03-25T01:27:03.464Z,1.80
2023-03-25T01:29:31.053Z,1.70
2023-03-25T01:31:58.009Z,1.60
2023-03-25T01:34:25.436Z,2.00
2023-03-25T01:36:55.161Z,2.13
2023-03-25T01:39:22.592Z,1.73
2023-03-25T01:41:51.402Z,2.07
2023-03-25T01:44:22.079Z,1.60
2023-03-25T01:46:54.585Z,2.00
2023-03-25T01:49:39.135Z,1.50
2023-03-25T01:52:17.902Z,2.20
2023-03-25T01:54:46.576Z,1.93
2023-03-25T01:57:19.495Z,2.13
2023-03-25T01:59:47.116Z,2.40
2023-03-25T02:02:15.721Z,2.10
2023-03-25T02:04:59.169Z,2.10
2023-03-25T02:07:33.195Z,1.60
2023-03-25T02:10:04.894Z,2.33
2023-03-25T02:12:31.833Z,2.23
2023-03-25T02:15:02.378Z,2.17
2023-03-25T02:17:56.360Z,1.87
2023-03-25T02:21:13.910Z,1.90
2023-03-25T02:24:16.955Z,2.20
2023-03-25T02:27:13.829Z,2.40
2023-03-25T02:30:28.243Z,1.70
2023-03-25T02:33:42.698Z,2.00
2023-03-25T02:36:45.657Z,2.10
2023-03-25T02:39:40.582Z,2.23
2023-03-25T02:42:40.704Z,2.30
2023-03-25T02:45:34.148Z,2.40
2023-03-25T02:48:08.434Z,2.10
2023-03-25T02:50:44.381Z,2.23
2023-03-25T02:53:18.222Z,2.10
2023-03-25T02:55:48.006Z,2.33
2023-03-25T02:58:19.332Z,2.00
2023-03-25T03:00:46.735Z,2.20
2023-03-25T03:03:13.816Z,2.23
2023-03-25T03:05:46.301Z,1.83
2023-03-25T03:08:49.988Z,2.20
2023-03-25T03:11:30.331Z,1.97
2023-03-25T03:14:11.878Z,1.90
2023-03-25T03:17:20.113Z,2.23
2023-03-25T03:19:58.314Z,2.00
2023-03-25T03:23:12.282Z,3.17
2023-03-25T03:25:54.472Z,1.63
2023-03-25T03:28:32.973Z,2.07
2023-03-25T03:31:52.171Z,1.57
2023-03-25T03:34:34.621Z,2.23
2023-03-25T03:37:04.403Z,2.47
2023-03-25T03:39:36.612Z,1.63
2023-03-25T03:42:23.669Z,2.10
2023-03-25T03:44:57.010Z,1.80
2023-03-25T03:47:32.491Z,1.90
2023-03-25T03:50:09.276Z,1.70
2023-03-25T03:52:46.199Z,2.13
2023-03-25T03:55:19.064Z,2.20
2023-03-25T03:57:53.111Z,2.00
2023-03-25T04:00:29.613Z,2.10
2023-03-25T04:03:06.050Z,1.73
2023-03-25T04:05:36.654Z,1.70
2023-03-25T04:08:26.475Z,2.10
2023-03-25T04:11:01.620Z,1.50
2023-03-25T04:13:35.153Z,1.83
2023-03-25T04:16:02.496Z,1.70
2023-03-25T04:18:29.802Z,2.07
2023-03-25T04:20:56.770Z,2.20
2023-03-25T04:23:23.654Z,2.13
2023-03-25T04:25:53.484Z,2.50
2023-03-25T04:28:20.793Z,1.70
2023-03-25T04:30:55.549Z,1.83
2023-03-25T04:33:23.692Z,2.03
2023-03-25T04:35:51.558Z,1.87
2023-03-25T04:38:19.774Z,2.37
2023-03-25T04:40:47.483Z,2.30
2023-03-25T04:43:17.897Z,1.97
2023-03-25T04:45:49.589Z,2.10
2023-03-25T04:48:30.436Z,1.93
2023-03-25T04:50:59.198Z,1.80
2023-03-25T04:53:27.292Z,1.60
2023-03-25T04:55:55.183Z,2.27
2023-03-25T04:58:22.996Z,2.00
2023-03-25T05:00:52.249Z,1.70
2023-03-25T05:03:24.360Z,2.30
2023-03-25T05:05:52.814Z,1.90
2023-03-25T05:08:21.676Z,2.43
2023-03-25T05:10:49.639Z,1.87
2023-03-25T05:13:17.066Z,2.20
2023-03-25T05:15:44.167Z,1.50
2023-03-25T05:18:16.157Z,2.00
2023-03-25T05:20:46.893Z,2.50
2023-03-25T05:23:17.954Z,2.10
2023-03-25T05:25:51.337Z,1.87
2023-03-25T05:28:19.516Z,2.30
2023-03-25T05:30:47.432Z,2.07
2023-03-25T05:33:17.062Z,2.13
2023-03-25T05:35:45.219Z,1.90
2023-03-25T05:38:13.418Z,1.73
2023-03-25T05:40:40.497Z,2.17
2023-03-25T05:43:07.923Z,1.97
2023-03-25T05:45:38.221Z,2.00
2023-03-25T05:48:05.482Z,1.90
2023-03-25T05:50:32.637Z,1.80
2023-03-25T05:52:59.938Z,2.20
2023-03-25T05:55:28.154Z,2.00
2023-03-25T05:57:56.886Z,1.90
2023-03-25T06:00:24.602Z,2.03
2023-03-25T06:02:52.225Z,2.00
2023-03-25T06:05:23.552Z,2.07
2023-03-25T06:07:51.165Z,2.00
2023-03-25T06:10:18.732Z,2.30
2023-03-25T06:12:47.384Z,2.30
2023-03-25T06:15:18.106Z,2.10
2023-03-25T06:17:47.238Z,2.30
2023-03-25T06:20:16.597Z,2.60
2023-03-25T06:22:45.797Z,2.00
2023-03-25T06:25:20.619Z,2.20
2023-03-25T06:27:50.023Z,2.90
2023-03-25T06:30:21.798Z,2.77
2023-03-25T06:32:50.516Z,3.30
2023-03-25T06:35:20.165Z,2.43
2023-03-25T06:37:48.911Z,1.97
2023-03-25T06:40:24.931Z,2.10
2023-03-25T06:42:51.943Z,3.53
2023-03-25T06:45:44.453Z,1.80
2023-03-25T06:48:18.401Z,2.27
2023-03-25T06:50:45.733Z,2.17
2023-03-25T06:53:12.720Z,1.83
2023-03-25T06:55:39.644Z,1.73
2023-03-25T06:58:06.612Z,1.73
2023-03-25T07:00:33.503Z,1.60
2023-03-25T07:03:01.698Z,2.37
2023-03-25T07:05:28.807Z,1.90
2023-03-25T07:07:55.828Z,1.90
2023-03-25T07:10:22.737Z,2.07
2023-03-25T07:12:49.606Z,2.27
2023-03-25T07:15:16.625Z,2.10
2023-03-25T07:17:49.106Z,2.23
2023-03-25T07:20:17.119Z,2.40
2023-03-25T07:22:44.274Z,2.33
2023-03-25T07:25:11.177Z,2.00
2023-03-25T07:27:38.069Z,2.40
2023-03-25T07:30:09.922Z,2.40
2023-03-25T07:32:36.854Z,2.33
2023-03-25T07:35:04.826Z,2.10
2023-03-25T07:37:31.888Z,2.50
2023-03-25T07:39:58.803Z,2.70
2023-03-25T07:42:25.671Z,2.57
2023-03-25T07:45:02.940Z,2.90
2023-03-25T07:47:31.269Z,3.30
2023-03-25T07:49:58.215Z,2.57
2023-03-25T07:52:25.166Z,2.30
2023-03-25T07:54:52.087Z,2.23
2023-03-25T07:57:18.972Z,3.50
2023-03-25T07:59:45.854Z,2.40
2023-03-25T08:02:14.067Z,3.07
2023-03-25T08:04:41.032Z,2.50
2023-03-25T08:07:08.102Z,2.67
2023-03-25T08:09:35.319Z,3.67
2023-03-25T08:12:02.315Z,3.10
2023-03-25T08:14:29.211Z,2.97
2023-03-25T08:16:56.144Z,2.20
2023-03-25T08:19:23.072Z,3.00
2023-03-25T08:21:49.959Z,3.60
2023-03-25T08:24:17.041Z,2.93
2023-03-25T08:26:44.463Z,3.40
2023-03-25T08:29:11.599Z,2.93
2023-03-25T08:31:39.126Z,4.70
2023-03-25T08:34:06.856Z,3.00
2023-03-25T08:36:33.823Z,3.53
2023-03-25T08:39:01.496Z,3.23
2023-03-25T08:41:28.404Z,3.43
2023-03-25T08:43:55.294Z,3.03
2023-03-25T08:46:23.194Z,3.03
2023-03-25T08:48:50.423Z,3.30
2023-03-25T08:51:18.020Z,3.30
2023-03-25T08:53:45.002Z,2.90
2023-03-25T08:56:11.914Z,3.27
2023-03-25T08:58:38.871Z,3.20
2023-03-25T09:01:06.684Z,3.37
2023-03-25T09:03:33.940Z,4.00
2023-03-25T09:06:05.839Z,2.70
2023-03-25T09:08:33.148Z,2.83
2023-03-25T09:11:00.248Z,2.93
2023-03-25T09:13:27.141Z,2.40
2023-03-25T09:15:54.291Z,2.40
2023-03-25T09:18:21.524Z,3.10
2023-03-25T09:20:48.462Z,2.73
2023-03-25T09:23:16.255Z,2.53
2023-03-25T09:25:43.204Z,2.80
2023-03-25T09:28:10.389Z,2.30
2023-03-25T09:30:37.299Z,2.50
2023-03-25T09:33:04.368Z,2.40
2023-03-25T09:35:31.310Z,3.67
2023-03-25T09:37:58.327Z,2.87
2023-03-25T09:40:25.455Z,3.30
2023-03-25T09:43:29.919Z,3.37
2023-03-25T09:45:57.728Z,2.20
2023-03-25T09:48:38.414Z,2.60
2023-03-25T09:51:25.530Z,2.77
2023-03-25T09:54:00.405Z,2.13
2023-03-25T09:56:31.470Z,2.50
2023-03-25T09:59:11.479Z,2.67
2023-03-25T10:01:39.988Z,2.70
2023-03-25T10:04:33.884Z,2.73
2023-03-25T10:07:32.158Z,2.93
2023-03-25T10:10:19.370Z,2.40
2023-03-25T10:13:22.836Z,2.93
2023-03-25T10:16:29.471Z,2.70
2023-03-25T10:19:27.804Z,3.27
2023-03-25T10:22:04.481Z,2.10
2023-03-25T10:24:51.096Z,2.30
2023-03-25T10:27:38.087Z,2.40
2023-03-25T10:30:23.317Z,2.27
2023-03-25T10:32:57.482Z,2.50
2023-03-25T10:35:31.198Z,2.37
2023-03-25T10:38:13.909Z,2.30
2023-03-25T10:40:53.503Z,2.37
2023-03-25T10:43:34.654Z,2.23
2023-03-25T10:46:34.012Z,2.27
2023-03-25T10:49:01.341Z,2.10
2023-03-25T10:51:32.753Z,2.00
2023-03-25T10:54:00.549Z,1.93
2023-03-25T10:56:36.347Z,2.30
2023-03-25T10:59:27.991Z,2.50
2023-03-25T11:01:56.621Z,2.30
2023-03-25T11:04:46.279Z,2.33
2023-03-25T11:07:24.625Z,1.80
2023-03-25T11:09:51.812Z,1.47
2023-03-25T11:12:33.244Z,1.10
2023-03-25T11:15:19.589Z,1.53
2023-03-25T11:17:48.388Z,0.93
2023-03-25T11:20:22.230Z,1.80
2023-03-25T11:22:53.548Z,1.57
2023-03-25T11:25:29.091Z,1.80
2023-03-25T11:27:59.340Z,2.00
2023-03-25T11:30:26.729Z,2.40
2023-03-25T11:33:05.286Z,1.87
2023-03-25T11:35:38.620Z,2.40
2023-03-25T11:38:23.698Z,2.13
2023-03-25T11:40:56.757Z,2.30
2023-03-25T11:43:33.500Z,2.50
2023-03-25T11:46:10.762Z,2.43
2023-03-25T11:48:41.078Z,2.77
2023-03-25T11:51:24.927Z,2.13
2023-03-25T11:54:01.528Z,2.27
2023-03-25T11:56:41.178Z,2.20
2023-03-25T11:59:18.628Z,1.93
2023-03-25T12:01:49.124Z,2.00
2023-03-25T12:04:24.839Z,1.90
2023-03-25T12:07:04.762Z,2.33
2023-03-25T12:09:32.852Z,3.07
2023-03-25T12:12:21.798Z,2.43
2023-03-25T12:15:26.971Z,2.07
2023-03-25T12:18:29.279Z,2.10
2023-03-25T12:21:29.992Z,1.87
2023-03-25T12:24:28.409Z,2.30
2023-03-25T12:27:29.065Z,1.77
2023-03-25T12:30:13.349Z,2.40
2023-03-25T12:33:24.515Z,1.93
2023-03-25T12:36:24.254Z,2.27
2023-03-25T12:39:43.314Z,2.10
2023-03-25T12:42:59.494Z,2.40
2023-03-25T12:45:38.098Z,2.60
2023-03-25T12:48:45.881Z,2.63
2023-03-25T12:52:06.717Z,2.13
2023-03-25T12:55:01.269Z,1.90
2023-03-25T12:58:02.164Z,1.73
2023-03-25T13:00:55.017Z,1.20
2023-03-25T13:04:08.436Z,0.80
2023-03-25T13:06:41.988Z,0.80
2023-03-25T13:09:30.971Z,1.30
2023-03-25T13:12:37.857Z,0.83
2023-03-25T13:15:26.011Z,1.03
2023-03-25T13:18:02.207Z,1.00
2023-03-25T13:20:34.862Z,1.10
2023-03-25T13:23:06.409Z,1.03
2023-03-25T13:26:08.641Z,0.80
2023-03-25T13:28:47.610Z,1.00
2023-03-25T13:31:19.941Z,1.27
2023-03-25T13:34:41.178Z,0.90
2023-03-25T13:37:33.201Z,1.17
2023-03-25T13:40:47.548Z,1.10
2023-03-25T13:43:43.489Z,1.50
2023-03-25T13:46:19.317Z,1.00
2023-03-25T13:48:55.778Z,1.13
2023-03-25T13:51:23.289Z,1.00
2023-03-25T13:54:16.136Z,1.30
2023-03-25T13:57:24.798Z,1.60
2023-03-25T14:00:14.267Z,2.47
2023-03-25T14:03:31.679Z,1.77
2023-03-25T14:06:13.824Z,1.43
2023-03-25T14:09:16.569Z,1.20
2023-03-25T14:12:08.317Z,1.30
2023-03-25T14:14:49.525Z,1.37
2023-03-25T14:17:17.855Z,1.10
2023-03-25T14:19:55.187Z,1.03
2023-03-25T14:22:36.814Z,1.03
2023-03-25T14:25:03.731Z,0.97
2023-03-25T14:27:34.135Z,0.80
2023-03-25T14:30:08.475Z,0.87
2023-03-25T14:32:38.872Z,0.87
2023-03-25T14:35:33.960Z,1.07
2023-03-25T14:38:07.516Z,1.70
2023-03-25T14:40:59.091Z,1.50
2023-03-25T14:43:46.624Z,1.17
2023-03-25T14:46:14.362Z,1.00
2023-03-25T14:48:52.740Z,1.60
2023-03-25T14:51:41.106Z,1.40
2023-03-25T14:54:41.393Z,1.43
2023-03-25T14:57:16.013Z,1.20
2023-03-25T14:59:48.944Z,1.53
2023-03-25T15:02:21.328Z,1.80
2023-03-25T15:05:11.943Z,1.40
2023-03-25T15:07:45.875Z,2.13
2023-03-25T15:10:25.434Z,1.87
2023-03-25T15:13:01.320Z,1.40
2023-03-25T15:15:45.343Z,1.53
2023-03-25T15:18:37.076Z,1.20
2023-03-25T15:21:12.026Z,2.00
2023-03-25T15:23:41.996Z,1.80
2023-03-25T15:26:48.182Z,1.43
2023-03-25T15:29:42.917Z,1.53
2023-03-25T15:32:49.172Z,1.43
2023-03-25T15:36:12.097Z,1.43
2023-03-25T15:39:15.370Z,1.90
2023-03-25T15:42:22.206Z,1.80
2023-03-25T15:45:14.451Z,1.50
2023-03-25T15:48:14.322Z,1.40
2023-03-25T15:51:07.177Z,1.40
2023-03-25T15:54:00.710Z,1.80
2023-03-25T15:56:42.036Z,1.57
2023-03-25T15:59:51.515Z,2.80
2023-03-25T16:02:46.363Z,1.80
2023-03-25T16:05:16.063Z,1.33
2023-03-25T16:07:43.713Z,1.90
2023-03-25T16:10:19.174Z,1.60
2023-03-25T16:12:48.171Z,2.33
2023-03-25T16:15:26.092Z,2.47
2023-03-25T16:17:53.672Z,2.07
2023-03-25T16:20:26.755Z,1.60
2023-03-25T16:22:57.115Z,1.70
2023-03-25T16:25:35.564Z,1.70
2023-03-25T16:28:05.830Z,2.17
2023-03-25T16:30:43.138Z,1.63
2023-03-25T16:33:10.622Z,1.63
2023-03-25T16:35:59.773Z,1.93
2023-03-25T16:38:27.373Z,2.00
2023-03-25T16:41:18.412Z,2.20
2023-03-25T16:43:45.724Z,4.97
2023-03-25T16:46:23.471Z,2.40
2023-03-25T16:48:54.835Z,2.37
2023-03-25T16:51:36.761Z,2.93
2023-03-25T16:54:09.913Z,2.10
2023-03-25T16:56:39.232Z,1.97
2023-03-25T16:59:11.787Z,2.63
2023-03-25T17:01:43.101Z,2.30
2023-03-25T17:04:39.236Z,2.10
2023-03-25T17:07:12.519Z,2.37
2023-03-25T17:09:44.124Z,2.20
2023-03-25T17:12:18.128Z,3.20
2023-03-25T17:14:48.317Z,2.90
2023-03-25T17:17:41.597Z,3.20
2023-03-25T17:20:20.927Z,2.47
2023-03-25T17:23:09.194Z,2.17
2023-03-25T17:26:08.136Z,2.00
2023-03-25T17:29:01.351Z,3.87
2023-03-25T17:31:33.955Z,4.27
2023-03-25T17:34:05.334Z,4.40
2023-03-25T17:36:36.299Z,3.27
2023-03-25T17:39:16.409Z,3.00
2023-03-25T17:41:43.463Z,2.07
2023-03-25T17:44:18.169Z,3.70
2023-03-25T17:46:45.296Z,2.80
2023-03-25T17:49:16.835Z,2.40
2023-03-25T17:51:44.443Z,2.00
2023-03-25T17:54:11.371Z,2.13
2023-03-25T17:56:39.490Z,2.63
2023-03-25T17:59:14.826Z,2.80
2023-03-25T18:01:41.920Z,2.63
2023-03-25T18:04:12.931Z,3.20
2023-03-25T18:06:42.633Z,1.97
2023-03-25T18:09:19.169Z,2.83
2023-03-25T18:11:49.643Z,2.17
2023-03-25T18:14:16.644Z,2.37
2023-03-25T18:16:43.606Z,2.47
2023-03-25T18:19:28.167Z,2.40
2023-03-25T18:21:55.147Z,2.30
2023-03-25T18:24:22.634Z,2.20
2023-03-25T18:26:50.658Z,2.20
2023-03-25T18:29:24.250Z,2.70
2023-03-25T18:31:51.870Z,2.30
2023-03-25T18:34:20.850Z,2.10
2023-03-25T18:36:49.410Z,2.10
2023-03-25T18:39:19.828Z,2.47
2023-03-25T18:41:46.742Z,2.30
2023-03-25T18:44:14.133Z,3.10
2023-03-25T18:46:41.510Z,3.40
2023-03-25T18:49:18.197Z,4.10
2023-03-25T18:51:47.810Z,3.83
2023-03-25T18:54:16.382Z,3.50
2023-03-25T18:56:43.392Z,3.70
2023-03-25T18:59:11.806Z,3.00
2023-03-25T19:01:39.180Z,3.20
2023-03-25T19:04:06.190Z,3.20
2023-03-25T19:06:33.177Z,2.70
2023-03-25T19:09:00.796Z,3.10
2023-03-25T19:11:28.312Z,3.07
2023-03-25T19:13:55.453Z,2.60
2023-03-25T19:16:22.393Z,2.80
2023-03-25T19:18:49.471Z,3.10
2023-03-25T19:21:19.196Z,2.30
2023-03-25T19:23:46.860Z,2.87
2023-03-25T19:26:14.206Z,2.70
2023-03-25T19:28:41.243Z,2.30
2023-03-25T19:31:08.466Z,2.80
2023-03-25T19:33:35.458Z,2.20
2023-03-25T19:36:04.337Z,2.50
2023-03-25T19:38:32.704Z,3.17
2023-03-25T19:41:09.574Z,2.57
2023-03-25T19:43:37.068Z,3.10
2023-03-25T19:46:05.390Z,2.93
2023-03-25T19:48:33.208Z,2.63
2023-03-25T19:51:00.221Z,2.77
2023-03-25T19:53:28.155Z,3.00
2023-03-25T19:55:55.897Z,3.10
2023-03-25T19:58:24.580Z,3.00
2023-03-25T20:00:52.895Z,2.50
2023-03-25T20:03:22.558Z,3.13
2023-03-25T20:05:56.168Z,2.97
2023-03-25T20:08:23.424Z,3.07
2023-03-25T20:10:50.568Z,2.50
2023-03-25T20:13:17.603Z,3.03
2023-03-25T20:15:44.600Z,2.73
2023-03-25T20:18:11.601Z,2.80
2023-03-25T20:20:40.433Z,2.73
2023-03-25T20:23:07.678Z,3.57
2023-03-25T20:25:34.591Z,4.33
2023-03-25T20:28:01.615Z,3.53
2023-03-25T20:30:28.462Z,3.07
2023-03-25T20:32:55.335Z,2.00
2023-03-25T20:35:22.527Z,1.40
2023-03-25T20:37:49.647Z,2.60
2023-03-25T20:40:18.115Z,1.73
2023-03-25T20:42:46.787Z,1.60
2023-03-25T20:45:16.350Z,2.20
2023-03-25T20:47:43.686Z,1.97
2023-03-25T20:50:14.458Z,1.80
2023-03-25T20:52:41.825Z,1.67
2023-03-25T20:55:09.958Z,2.03
2023-03-25T20:57:38.106Z,2.00
2023-03-25T21:00:07.237Z,2.30
2023-03-25T21:02:34.980Z,1.90
2023-03-25T21:05:03.427Z,2.13
2023-03-25T21:07:32.331Z,2.00
2023-03-25T21:09:59.502Z,2.33
2023-03-25T21:12:36.355Z,2.73
2023-03-25T21:15:10.669Z,3.23
2023-03-25T21:17:37.721Z,2.60
2023-03-25T21:20:08.096Z,2.00
2023-03-25T21:22:35.879Z,1.77
2023-03-25T21:25:02.767Z,2.50
2023-03-25T21:27:39.287Z,2.07
2023-03-25T21:30:09.622Z,2.20
2023-03-25T21:32:37.844Z,2.53
2023-03-25T21:35:05.250Z,1.93
2023-03-25T21:37:37.630Z,1.97
2023-03-25T21:40:08.164Z,1.67
2023-03-25T21:42:38.193Z,1.93
2023-03-25T21:45:07.598Z,1.50
2023-03-25T21:47:36.022Z,1.73
2023-03-25T21:50:09.221Z,2.13
2023-03-25T21:52:36.636Z,1.90
2023-03-25T21:55:03.800Z,1.63
2023-03-25T21:57:31.823Z,1.20
2023-03-25T21:59:58.723Z,1.80
2023-03-25T22:02:25.794Z,2.37
2023-03-25T22:04:52.794Z,1.90
2023-03-25T22:07:19.671Z,2.00
2023-03-25T22:09:48.145Z,2.10
2023-03-25T22:12:15.050Z,2.07
2023-03-25T22:14:41.946Z,1.83
2023-03-25T22:17:08.900Z,1.87
2023-03-25T22:19:35.990Z,2.13
2023-03-25T22:22:03.518Z,2.00
2023-03-25T22:24:31.242Z,1.90
2023-03-25T22:26:58.204Z,1.83
2023-03-25T22:29:25.633Z,2.03
2023-03-25T22:31:55.708Z,2.17
2023-03-25T22:34:22.638Z,2.00
2023-03-25T22:36:50.269Z,2.00
2023-03-25T22:39:20.002Z,2.00
2023-03-25T22:41:46.929Z,1.63
2023-03-25T22:44:16.822Z,1.80
2023-03-25T22:46:45.384Z,1.90
2023-03-25T22:49:12.558Z,2.13
2023-03-25T22:51:39.536Z,1.80
2023-03-25T22:54:07.400Z,2.00
2023-03-25T22:56:34.370Z,1.43
2023-03-25T22:59:06.476Z,2.40
2023-03-25T23:01:34.411Z,1.87
2023-03-25T23:04:02.444Z,1.60
2023-03-25T23:06:29.972Z,2.33
2023-03-25T23:08:58.097Z,1.63
2023-03-25T23:11:28.015Z,1.50
2023-03-25T23:14:02.318Z,1.40
2023-03-25T23:16:31.145Z,1.60
2023-03-25T23:18:58.577Z,1.10
2023-03-25T23:21:29.329Z,1.50
2023-03-25T23:23:59.329Z,1.40
2023-03-25T23:26:34.889Z,1.03
2023-03-25T23:29:04.648Z,1.57
2023-03-25T23:31:34.147Z,1.33
2023-03-25T23:34:06.710Z,1.27
2023-03-25T23:36:38.456Z,1.10
2023-03-25T23:39:08.746Z,1.27
2023-03-25T23:41:36.455Z,1.30
2023-03-25T23:44:04.802Z,1.53
2023-03-25T23:46:32.211Z,1.50
2023-03-25T23:49:02.444Z,1.33
2023-03-25T23:51:36.455Z,1.50
2023-03-25T23:54:06.406Z,2.00
2023-03-25T23:56:33.660Z,1.80
2023-03-25T23:59:01.505Z,1.50
